Emmagracht — PDYX — position and weather

sailwx.info

Track history (hours):
 
Tides and Currents Weather Stations Pressure Air Temp Water Temp Dewpoint Dewpoint Depression Visibility Wind Speed Wind Dir Waves Ship Positions

Emmagracht

Last reported at 2016-Jun-19 06:28 UTC. Time now 2016-Jun-27 18:37 UTC.
Position N 45°13' W 074°06'.
Warning: this ship's position is 8 days out of date.

Length 136 m; beam 19 m; draft 9 m.

Type: Cargo ship. MMSI: 246308000.

Date/timePositionNaut miles runAvg speedWind from/ knotsBaromVisibWave heightAir tempDewpointWater temp
2016-Jun-19 06:28N 45°13' W 074°06'1 0.1
2016-Jun-18 18:16N 45°14' W 074°07'5 0.5
2016-Jun-18 09:23N 45°14' W 074°14'0 0.0
2016-Jun-17 12:10N 45°14' W 074°14'0 0.0
2016-Jun-17 11:31N 45°14' W 074°14'0 0.0
2016-Jun-17 10:28N 45°14' W 074°14'0 0.0
2016-Jun-17 09:28N 45°14' W 074°14'0 0.0
2016-Jun-17 08:28N 45°14' W 074°14'0 0.0
2016-Jun-17 07:28N 45°14' W 074°14'0 0.0
2016-Jun-17 06:28N 45°14' W 074°14'0 0.0
2016-Jun-16 09:31N 45°14' W 074°14'0 0.0
2016-Jun-16 08:31N 45°14' W 074°14'0 0.0
2016-Jun-16 07:34N 45°14' W 074°14'0 0.0
2016-Jun-16 06:30N 45°14' W 074°14'0 0.0
2016-Jun-16 05:30N 45°14' W 074°14'2 0.1
2016-Jun-15 15:30N 45°13' W 074°16'12436.3
2016-Jun-15 12:04N 43°56' W 076°33'0 0.0
2016-Jun-15 11:33N 43°56' W 076°33'0 0.0
2016-Jun-15 10:33N 43°56' W 076°33'0 0.0
2016-Jun-15 09:33N 43°56' W 076°33'0 0.0
2016-Jun-15 08:33N 43°56' W 076°33'0 0.0
2016-Jun-15 07:34N 43°56' W 076°33'0 0.0
2016-Jun-15 06:34N 43°56' W 076°33'0 0.0
2016-Jun-15 05:33N 43°56' W 076°33'0 0.0
2016-Jun-15 04:34N 43°56' W 076°33'0 0.0
2016-Jun-15 03:33N 43°56' W 076°33'0 0.0
2016-Jun-15 02:34N 43°56' W 076°33'  
2016-Jun-12 15:23N 44°07' W 076°22'115 5.9
2016-Jun-11 20:06N 45°14' W 074°11'6 9.8
2016-Jun-11 19:29N 45°13' W 074°02'510.1
2016-Jun-11 19:00N 45°17' W 073°57'2 4.2
2016-Jun-11 18:33N 45°18' W 073°56'2 1.9
2016-Jun-11 17:33N 45°20' W 073°54'1110.7
2016-Jun-11 16:33N 45°25' W 073°41'5 4.9
2016-Jun-11 15:33N 45°24' W 073°34'3 3.2
2016-Jun-11 14:33N 45°26' W 073°30'4 3.5
2016-Jun-11 13:29N 45°30' W 073°31'4 3.9
2016-Jun-11 12:33N 45°34' W 073°31'0 0.0
2016-Jun-11 11:19N 45°34' W 073°31'0 0.0
2016-Jun-11 10:31N 45°34' W 073°31'0 0.0
2016-Jun-11 09:31N 45°34' W 073°31'0 0.0
2016-Jun-11 08:31N 45°34' W 073°31'0 0.0
2016-Jun-11 07:28N 45°34' W 073°31'0 0.0
2016-Jun-11 06:31N 45°34' W 073°31'0 0.0
2016-Jun-11 04:28N 45°34' W 073°31'0 0.0
2016-Jun-11 03:31N 45°34' W 073°31'0 0.0
2016-Jun-11 02:31N 45°34' W 073°31'0 0.0
2016-Jun-11 00:25N 45°34' W 073°31'6 6.9
2016-Jun-10 23:33N 45°39' W 073°28'1010.4
2016-Jun-10 22:33N 45°48' W 073°20'1010.3
2016-Jun-10 21:33N 45°57' W 073°13'10 9.8
2016-Jun-10 20:33N 46°04' W 073°03'1110.9
2016-Jun-10 19:33N 46°12' W 072°52'  
Track history (hours):
 
Tides and Currents Weather Stations Pressure Air Temp Water Temp Dewpoint Dewpoint Depression Visibility Wind Speed Wind Dir Waves Ship Positions

Emmagracht

Last reported at 2016-Jun-19 06:28 UTC. Time now 2016-Jun-27 18:37 UTC.
Position N 45°13' W 074°06'.
Warning: this ship's position is 8 days out of date.

Length 136 m; beam 19 m; draft 9 m.

Type: Cargo ship. MMSI: 246308000.

Date/timePositionNaut miles runAvg speedWind from/ knotsBaromVisibWave heightAir tempDewpointWater temp
2016-Jun-19 06:28N 45°13' W 074°06'1 0.1
2016-Jun-18 18:16N 45°14' W 074°07'5 0.5
2016-Jun-18 09:23N 45°14' W 074°14'0 0.0
2016-Jun-17 12:10N 45°14' W 074°14'0 0.0
2016-Jun-17 11:31N 45°14' W 074°14'0 0.0
2016-Jun-17 10:28N 45°14' W 074°14'0 0.0
2016-Jun-17 09:28N 45°14' W 074°14'0 0.0
2016-Jun-17 08:28N 45°14' W 074°14'0 0.0
2016-Jun-17 07:28N 45°14' W 074°14'0 0.0
2016-Jun-17 06:28N 45°14' W 074°14'0 0.0
2016-Jun-16 09:31N 45°14' W 074°14'0 0.0
2016-Jun-16 08:31N 45°14' W 074°14'0 0.0
2016-Jun-16 07:34N 45°14' W 074°14'0 0.0
2016-Jun-16 06:30N 45°14' W 074°14'0 0.0
2016-Jun-16 05:30N 45°14' W 074°14'2 0.1
2016-Jun-15 15:30N 45°13' W 074°16'12436.3
2016-Jun-15 12:04N 43°56' W 076°33'0 0.0
2016-Jun-15 11:33N 43°56' W 076°33'0 0.0
2016-Jun-15 10:33N 43°56' W 076°33'0 0.0
2016-Jun-15 09:33N 43°56' W 076°33'0 0.0
2016-Jun-15 08:33N 43°56' W 076°33'0 0.0
2016-Jun-15 07:34N 43°56' W 076°33'0 0.0
2016-Jun-15 06:34N 43°56' W 076°33'0 0.0
2016-Jun-15 05:33N 43°56' W 076°33'0 0.0
2016-Jun-15 04:34N 43°56' W 076°33'0 0.0
2016-Jun-15 03:33N 43°56' W 076°33'0 0.0
2016-Jun-15 02:34N 43°56' W 076°33'  
2016-Jun-12 15:23N 44°07' W 076°22'115 5.9
2016-Jun-11 20:06N 45°14' W 074°11'6 9.8
2016-Jun-11 19:29N 45°13' W 074°02'510.1
2016-Jun-11 19:00N 45°17' W 073°57'2 4.2
2016-Jun-11 18:33N 45°18' W 073°56'2 1.9
2016-Jun-11 17:33N 45°20' W 073°54'1110.7
2016-Jun-11 16:33N 45°25' W 073°41'5 4.9
2016-Jun-11 15:33N 45°24' W 073°34'3 3.2
2016-Jun-11 14:33N 45°26' W 073°30'4 3.5
2016-Jun-11 13:29N 45°30' W 073°31'4 3.9
2016-Jun-11 12:33N 45°34' W 073°31'0 0.0
2016-Jun-11 11:19N 45°34' W 073°31'0 0.0
2016-Jun-11 10:31N 45°34' W 073°31'0 0.0
2016-Jun-11 09:31N 45°34' W 073°31'0 0.0
2016-Jun-11 08:31N 45°34' W 073°31'0 0.0
2016-Jun-11 07:28N 45°34' W 073°31'0 0.0
2016-Jun-11 06:31N 45°34' W 073°31'0 0.0
2016-Jun-11 04:28N 45°34' W 073°31'0 0.0
2016-Jun-11 03:31N 45°34' W 073°31'0 0.0
2016-Jun-11 02:31N 45°34' W 073°31'0 0.0
2016-Jun-11 00:25N 45°34' W 073°31'6 6.9
2016-Jun-10 23:33N 45°39' W 073°28'1010.4
2016-Jun-10 22:33N 45°48' W 073°20'1010.3
2016-Jun-10 21:33N 45°57' W 073°13'10 9.8
2016-Jun-10 20:33N 46°04' W 073°03'1110.9
2016-Jun-10 19:33N 46°12' W 072°52'  

Dump ship's entire track history